createdAt,value
2022-10-10T00:02:00.816Z,79.97
2022-10-10T00:04:31.606Z,80.13
2022-10-10T00:07:02.622Z,80.06
2022-10-10T00:09:34.505Z,79.91
2022-10-10T00:12:05.367Z,80.13
2022-10-10T00:14:36.278Z,80.23
2022-10-10T00:17:07.706Z,80.07
2022-10-10T00:19:38.587Z,79.91
2022-10-10T00:22:09.514Z,79.85
2022-10-10T00:24:40.424Z,79.85
2022-10-10T00:27:11.460Z,79.77
2022-10-10T00:29:42.350Z,79.79
2022-10-10T00:32:15.788Z,79.98
2022-10-10T00:34:46.797Z,79.72
2022-10-10T00:37:17.891Z,79.85
2022-10-10T00:39:48.763Z,80.00
2022-10-10T00:42:20.744Z,79.86
2022-10-10T00:45:26.528Z,80.09
2022-10-10T00:48:05.688Z,80.31
2022-10-10T00:50:40.853Z,80.12
2022-10-10T00:53:13.892Z,80.02
2022-10-10T00:55:46.394Z,79.98
2022-10-10T00:58:18.948Z,80.19
2022-10-10T01:00:50.130Z,80.39
2022-10-10T01:03:20.612Z,80.26
2022-10-10T01:05:53.412Z,80.11
2022-10-10T01:08:25.034Z,80.26
2022-10-10T01:11:20.745Z,80.34
2022-10-10T01:14:12.383Z,80.35
2022-10-10T01:16:55.072Z,80.51
2022-10-10T01:19:32.076Z,80.34
2022-10-10T01:22:30.117Z,80.08
2022-10-10T01:25:40.614Z,80.23
2022-10-10T01:28:30.279Z,79.85
2022-10-10T01:31:02.169Z,79.79
2022-10-10T01:33:45.477Z,79.90
2022-10-10T01:36:25.537Z,79.80
2022-10-10T01:39:20.023Z,79.83
2022-10-10T01:42:02.744Z,80.01
2022-10-10T01:44:33.717Z,80.11
2022-10-10T01:47:04.502Z,80.40
2022-10-10T01:49:38.658Z,79.94
2022-10-10T01:52:43.715Z,80.40
2022-10-10T01:55:25.023Z,80.61
2022-10-10T01:58:01.571Z,80.30
2022-10-10T02:00:39.202Z,80.51
2022-10-10T02:03:17.342Z,80.90
2022-10-10T02:05:57.442Z,80.55
2022-10-10T02:08:31.431Z,80.55
2022-10-10T02:11:08.599Z,80.38
2022-10-10T02:13:47.925Z,80.54
2022-10-10T02:16:32.174Z,80.65
2022-10-10T02:19:04.844Z,80.71
2022-10-10T02:21:36.495Z,80.90
2022-10-10T02:24:12.515Z,80.84
2022-10-10T02:26:48.201Z,81.35
2022-10-10T02:29:28.224Z,81.45
2022-10-10T02:32:20.188Z,81.29
2022-10-10T02:34:55.233Z,80.86
2022-10-10T02:37:28.050Z,80.71
2022-10-10T02:40:06.095Z,81.03
2022-10-10T02:42:38.481Z,80.86
2022-10-10T02:45:10.418Z,80.91
2022-10-10T02:47:41.401Z,80.82
2022-10-10T02:50:12.652Z,81.12
2022-10-10T02:52:43.774Z,81.21
2022-10-10T02:55:14.734Z,80.99
2022-10-10T02:57:45.353Z,80.77
2022-10-10T03:00:16.973Z,80.65
2022-10-10T03:02:49.193Z,80.83
2022-10-10T03:05:20.465Z,81.03
2022-10-10T03:07:52.438Z,80.87
2022-10-10T03:10:23.386Z,80.89
2022-10-10T03:12:54.202Z,80.72
2022-10-10T03:15:25.175Z,80.61
2022-10-10T03:17:55.916Z,80.52
2022-10-10T03:20:26.885Z,80.53
2022-10-10T03:22:57.653Z,80.66
2022-10-10T03:25:28.654Z,80.58
2022-10-10T03:27:59.505Z,80.31
2022-10-10T03:30:30.333Z,80.31
2022-10-10T03:33:01.075Z,80.32
2022-10-10T03:35:32.106Z,80.19
2022-10-10T03:38:03.452Z,79.68
2022-10-10T03:40:34.733Z,79.09
2022-10-10T03:43:05.644Z,79.21
2022-10-10T03:45:36.692Z,78.91
2022-10-10T03:48:08.208Z,78.99
2022-10-10T03:50:39.762Z,78.56
2022-10-10T03:53:11.258Z,78.10
2022-10-10T03:55:46.316Z,78.09
2022-10-10T03:58:20.135Z,77.72
2022-10-10T04:01:02.608Z,77.72
2022-10-10T04:03:34.026Z,77.50
2022-10-10T04:06:05.183Z,77.21
2022-10-10T04:08:35.705Z,76.77
2022-10-10T04:11:06.825Z,76.51
2022-10-10T04:13:37.761Z,76.42
2022-10-10T04:16:08.999Z,76.45
2022-10-10T04:18:39.839Z,76.67
2022-10-10T04:21:11.475Z,76.33
2022-10-10T04:23:44.089Z,76.70
2022-10-10T04:26:14.992Z,76.47
2022-10-10T04:28:45.885Z,76.38
2022-10-10T04:31:20.902Z,75.71
2022-10-10T04:33:51.908Z,75.05
2022-10-10T04:36:22.794Z,75.20
2022-10-10T04:38:53.737Z,75.11
2022-10-10T04:41:24.672Z,75.16
2022-10-10T04:43:55.424Z,75.30
2022-10-10T04:46:26.275Z,75.39
2022-10-10T04:48:57.784Z,75.25
2022-10-10T04:51:28.788Z,75.32
2022-10-10T04:53:59.677Z,75.00
2022-10-10T04:56:30.923Z,75.35
2022-10-10T04:59:03.549Z,75.93
2022-10-10T05:01:34.666Z,76.35
2022-10-10T05:04:05.488Z,75.70
2022-10-10T05:06:36.307Z,75.34
2022-10-10T05:09:07.205Z,74.66
2022-10-10T05:11:38.260Z,74.41
2022-10-10T05:14:09.141Z,74.36
2022-10-10T05:16:40.452Z,74.03
2022-10-10T05:19:11.854Z,73.98
2022-10-10T05:21:42.821Z,73.42
2022-10-10T05:24:13.763Z,73.88
2022-10-10T05:26:44.644Z,73.88
2022-10-10T05:29:15.368Z,73.58
2022-10-10T05:31:46.274Z,73.52
2022-10-10T05:34:18.115Z,73.44
2022-10-10T05:36:49.095Z,73.55
2022-10-10T05:39:19.980Z,73.52
2022-10-10T05:41:50.782Z,73.59
2022-10-10T05:44:21.585Z,73.92
2022-10-10T05:46:52.442Z,73.82
2022-10-10T05:49:23.204Z,74.29
2022-10-10T05:51:54.075Z,74.48
2022-10-10T05:54:25.190Z,74.43
2022-10-10T05:56:56.043Z,74.88
2022-10-10T05:59:27.230Z,74.50
2022-10-10T06:01:58.430Z,75.02
2022-10-10T06:04:29.318Z,75.00
2022-10-10T06:07:00.302Z,74.98
2022-10-10T06:09:31.075Z,74.76
2022-10-10T06:12:01.948Z,74.86
2022-10-10T06:14:32.673Z,74.86
2022-10-10T06:17:03.619Z,74.82
2022-10-10T06:19:34.468Z,74.76
2022-10-10T06:22:05.579Z,74.54
2022-10-10T06:24:36.540Z,74.33
2022-10-10T06:27:07.541Z,73.97
2022-10-10T06:29:38.317Z,73.42
2022-10-10T06:32:09.247Z,73.98
2022-10-10T06:34:39.884Z,73.68
2022-10-10T06:37:11.357Z,73.48
2022-10-10T06:40:00.096Z,74.41
2022-10-10T06:42:31.481Z,74.22
2022-10-10T06:45:01.830Z,74.48
2022-10-10T06:47:33.680Z,74.87
2022-10-10T06:50:05.070Z,74.62
2022-10-10T06:52:35.418Z,74.60
2022-10-10T06:55:06.230Z,74.52
2022-10-10T06:57:37.162Z,74.85
2022-10-10T07:00:09.312Z,74.39
2022-10-10T07:02:43.425Z,74.32
2022-10-10T07:05:19.605Z,74.40
2022-10-10T07:07:51.429Z,74.37
2022-10-10T07:10:22.327Z,74.12
2022-10-10T07:12:54.017Z,74.32
2022-10-10T07:15:24.953Z,74.28
2022-10-10T07:18:03.660Z,73.95
2022-10-10T07:20:34.561Z,74.42
2022-10-10T07:23:07.399Z,74.54
2022-10-10T07:25:43.379Z,74.69
2022-10-10T07:28:14.723Z,74.71
2022-10-10T07:30:49.203Z,74.51
2022-10-10T07:33:20.725Z,74.77
2022-10-10T07:35:57.630Z,74.76
2022-10-10T07:38:31.899Z,74.46
2022-10-10T07:41:02.669Z,73.80
2022-10-10T07:43:33.348Z,74.51
2022-10-10T07:46:05.866Z,73.97
2022-10-10T07:48:39.110Z,73.65
2022-10-10T07:51:10.714Z,73.91
2022-10-10T07:53:41.861Z,73.64
2022-10-10T07:56:13.694Z,74.17
2022-10-10T07:58:45.244Z,74.10
2022-10-10T08:01:17.219Z,73.83
2022-10-10T08:03:50.288Z,74.14
2022-10-10T08:06:21.636Z,74.14
2022-10-10T08:08:53.205Z,73.95
2022-10-10T08:11:24.518Z,73.78
2022-10-10T08:13:55.291Z,74.22
2022-10-10T08:16:26.179Z,74.29
2022-10-10T08:18:57.252Z,74.01
2022-10-10T08:21:28.153Z,73.76
2022-10-10T08:23:59.219Z,74.11
2022-10-10T08:26:29.994Z,74.04
2022-10-10T08:29:00.952Z,73.57
2022-10-10T08:31:32.883Z,73.89
2022-10-10T08:34:03.710Z,73.72
2022-10-10T08:36:34.593Z,73.88
2022-10-10T08:39:06.320Z,73.19
2022-10-10T08:41:45.304Z,73.43
2022-10-10T08:44:24.495Z,73.91
2022-10-10T08:47:15.747Z,73.88
2022-10-10T08:50:06.492Z,73.96
2022-10-10T08:52:41.579Z,74.22
2022-10-10T08:55:36.373Z,74.24
2022-10-10T08:58:12.976Z,73.91
2022-10-10T09:00:51.112Z,73.91
2022-10-10T09:03:32.439Z,73.75
2022-10-10T09:06:02.244Z,74.20
2022-10-10T09:08:50.379Z,73.38
2022-10-10T09:11:59.100Z,74.03
2022-10-10T09:14:50.122Z,73.05
2022-10-10T09:17:24.473Z,73.44
2022-10-10T09:20:29.379Z,73.81
2022-10-10T09:23:08.501Z,73.99
2022-10-10T09:26:05.327Z,73.52
2022-10-10T09:28:42.336Z,73.56
2022-10-10T09:31:44.370Z,73.25
2022-10-10T09:34:41.084Z,73.69
2022-10-10T09:37:45.666Z,74.01
2022-10-10T09:40:22.015Z,73.55
2022-10-10T09:42:52.506Z,73.90
2022-10-10T09:45:39.211Z,73.82
2022-10-10T09:48:12.034Z,73.81
2022-10-10T09:50:43.847Z,73.96
2022-10-10T09:53:18.432Z,73.72
2022-10-10T09:55:49.810Z,73.86
2022-10-10T09:58:26.605Z,73.71
2022-10-10T10:00:57.123Z,73.59
2022-10-10T10:03:27.396Z,73.37
2022-10-10T10:06:03.863Z,73.44
2022-10-10T10:08:38.923Z,73.53
2022-10-10T10:11:22.963Z,73.67
2022-10-10T10:13:58.695Z,73.71
2022-10-10T10:16:38.517Z,73.93
2022-10-10T10:19:28.741Z,74.04
2022-10-10T10:21:58.747Z,73.87
2022-10-10T10:24:38.252Z,73.97
2022-10-10T10:27:21.060Z,74.24
2022-10-10T10:29:53.771Z,74.07
2022-10-10T10:32:35.968Z,74.06
2022-10-10T10:35:11.887Z,73.93
2022-10-10T10:37:57.434Z,73.96
2022-10-10T10:40:39.834Z,74.15
2022-10-10T10:43:19.867Z,74.04
2022-10-10T10:46:20.321Z,73.83
2022-10-10T10:49:18.752Z,73.84
2022-10-10T10:52:42.635Z,73.91
2022-10-10T10:55:41.717Z,73.93
2022-10-10T11:01:23.351Z,72.67
2022-10-10T11:05:16.364Z,73.41
2022-10-10T11:07:21.063Z,72.61
2022-10-10T11:10:00.081Z,71.17
2022-10-10T11:12:47.899Z,71.42
2022-10-10T11:15:23.437Z,71.15
2022-10-10T11:18:18.447Z,70.85
2022-10-10T11:21:10.661Z,70.86
2022-10-10T11:23:44.443Z,70.49
2022-10-10T11:26:33.318Z,70.09
2022-10-10T11:29:25.571Z,70.29
2022-10-10T11:32:16.160Z,70.01
2022-10-10T11:34:57.403Z,70.12
2022-10-10T11:37:31.486Z,70.44
2022-10-10T11:40:07.747Z,70.47
2022-10-10T11:42:54.888Z,70.27
2022-10-10T11:45:32.449Z,70.49
2022-10-10T11:48:02.697Z,70.51
2022-10-10T11:50:41.196Z,70.82
2022-10-10T11:53:25.069Z,71.16
2022-10-10T11:56:12.132Z,71.28
2022-10-10T11:59:01.267Z,71.57
2022-10-10T12:01:38.632Z,71.77
2022-10-10T12:04:08.896Z,71.90
2022-10-10T12:06:47.644Z,72.26
2022-10-10T12:09:40.041Z,72.33
2022-10-10T12:12:16.055Z,72.35
2022-10-10T12:14:56.043Z,72.65
2022-10-10T12:17:38.529Z,72.78
2022-10-10T12:20:17.649Z,72.85
2022-10-10T12:22:47.959Z,73.08
2022-10-10T12:25:24.020Z,72.90
2022-10-10T12:28:32.802Z,73.26
2022-10-10T12:31:05.982Z,73.50
2022-10-10T12:33:36.221Z,73.65
2022-10-10T12:36:44.151Z,73.93
2022-10-10T12:39:14.128Z,73.82
2022-10-10T12:41:49.837Z,73.78
2022-10-10T12:44:25.053Z,73.90
2022-10-10T12:47:16.841Z,74.05
2022-10-10T12:50:04.084Z,74.49
2022-10-10T12:52:39.583Z,74.49
2022-10-10T12:55:21.594Z,74.83
2022-10-10T12:57:55.339Z,74.65
2022-10-10T13:00:29.882Z,74.68
2022-10-10T13:03:06.864Z,75.45
2022-10-10T13:05:41.145Z,75.14
2022-10-10T13:08:20.718Z,75.61
2022-10-10T13:11:23.593Z,75.58
2022-10-10T13:13:56.326Z,76.01
2022-10-10T13:16:33.951Z,76.23
2022-10-10T13:19:04.489Z,76.44
2022-10-10T13:21:37.407Z,77.21
2022-10-10T13:24:09.434Z,77.12
2022-10-10T13:26:45.950Z,76.89
2022-10-10T13:29:28.428Z,76.99
2022-10-10T13:32:15.761Z,76.96
2022-10-10T13:34:51.514Z,76.91
2022-10-10T13:37:22.909Z,76.49
2022-10-10T13:39:54.889Z,77.15
2022-10-10T13:42:40.077Z,76.96
2022-10-10T13:45:30.670Z,76.65
2022-10-10T13:49:56.496Z,76.96
2022-10-10T13:52:26.564Z,76.61
2022-10-10T13:54:56.487Z,76.96
2022-10-10T13:57:29.867Z,76.67
2022-10-10T14:00:25.075Z,76.91
2022-10-10T14:02:55.432Z,76.57
2022-10-10T14:05:32.826Z,76.63
2022-10-10T14:08:02.932Z,76.83
2022-10-10T14:10:39.318Z,77.08
2022-10-10T14:13:19.755Z,76.96
2022-10-10T14:15:50.213Z,76.88
2022-10-10T14:18:20.191Z,77.22
2022-10-10T14:20:51.022Z,77.26
2022-10-10T14:23:21.496Z,77.41
2022-10-10T14:25:52.311Z,77.06
2022-10-10T14:28:28.643Z,76.88
2022-10-10T14:30:59.591Z,77.08
2022-10-10T14:33:30.135Z,77.06
2022-10-10T14:36:02.016Z,76.86
2022-10-10T14:38:32.199Z,76.81
2022-10-10T14:41:03.343Z,76.36
2022-10-10T14:43:33.603Z,76.49
2022-10-10T14:46:04.360Z,76.42
2022-10-10T14:48:34.495Z,76.38
2022-10-10T14:51:34.129Z,76.31
2022-10-10T14:54:12.690Z,76.31
2022-10-10T14:57:08.200Z,76.32
2022-10-10T14:59:48.098Z,75.93
2022-10-10T15:02:21.946Z,75.82
2022-10-10T15:04:52.681Z,75.77
2022-10-10T15:07:22.906Z,75.80
2022-10-10T15:12:46.710Z,75.66
2022-10-10T15:15:17.141Z,75.71
2022-10-10T15:17:47.135Z,76.04
2022-10-10T15:20:17.185Z,76.08
2022-10-10T15:22:48.209Z,76.08
2022-10-10T15:25:18.211Z,76.13
2022-10-10T15:27:48.115Z,76.12
2022-10-10T15:30:18.277Z,75.83
2022-10-10T15:32:48.472Z,76.21
2022-10-10T15:35:24.082Z,75.90
2022-10-10T15:37:54.110Z,76.04
2022-10-10T15:40:26.216Z,76.02
2022-10-10T15:42:56.252Z,76.03
2022-10-10T15:48:16.440Z,76.36
2022-10-10T15:50:46.673Z,76.21
2022-10-10T15:53:17.080Z,76.09
2022-10-10T15:55:48.372Z,76.76
2022-10-10T15:58:18.366Z,76.88
2022-10-10T16:00:48.409Z,76.87
2022-10-10T16:03:18.606Z,76.93
2022-10-10T16:05:48.572Z,76.09
2022-10-10T16:08:18.623Z,76.44
2022-10-10T16:10:48.632Z,76.23
2022-10-10T16:13:18.731Z,76.45
2022-10-10T16:15:59.614Z,76.29
2022-10-10T16:18:30.494Z,76.07
2022-10-10T16:21:01.009Z,76.51
2022-10-10T16:23:31.401Z,76.34
2022-10-10T16:26:10.083Z,76.37
2022-10-10T16:28:40.394Z,76.14
2022-10-10T16:31:13.506Z,76.83
2022-10-10T16:33:44.470Z,76.81
2022-10-10T16:36:20.706Z,76.63
2022-10-10T16:38:51.611Z,77.17
2022-10-10T16:41:42.973Z,76.68
2022-10-10T16:44:12.376Z,76.84
2022-10-10T16:46:42.301Z,76.73
2022-10-10T16:49:14.072Z,77.17
2022-10-10T16:51:44.150Z,77.09
2022-10-10T16:54:14.058Z,77.00
2022-10-10T16:56:46.935Z,77.47
2022-10-10T16:59:17.484Z,77.20
2022-10-10T17:01:47.526Z,77.24
2022-10-10T17:04:17.378Z,77.18
2022-10-10T17:06:47.258Z,77.61
2022-10-10T17:09:19.252Z,77.40
2022-10-10T17:11:51.404Z,77.77
2022-10-10T17:14:22.436Z,77.59
2022-10-10T17:17:12.075Z,77.47
2022-10-10T17:19:42.548Z,77.81
2022-10-10T17:22:12.478Z,77.62
2022-10-10T17:24:42.567Z,77.63
2022-10-10T17:27:12.551Z,77.52
2022-10-10T17:29:42.447Z,77.89
2022-10-10T17:32:12.519Z,78.08
2022-10-10T17:34:42.567Z,77.82
2022-10-10T17:37:12.479Z,78.03
2022-10-10T17:39:42.594Z,78.04
2022-10-10T17:42:12.552Z,78.22
2022-10-10T17:44:48.322Z,77.71
2022-10-10T17:47:21.352Z,77.87
2022-10-10T17:49:51.245Z,78.35
2022-10-10T17:52:21.559Z,78.08
2022-10-10T17:54:51.673Z,78.24
2022-10-10T17:57:21.943Z,78.21
2022-10-10T17:59:52.056Z,78.27
2022-10-10T18:02:22.367Z,78.41
2022-10-10T18:04:53.029Z,77.98
2022-10-10T18:07:23.200Z,77.94
2022-10-10T18:09:54.305Z,78.19
2022-10-10T18:12:24.104Z,78.19
2022-10-10T18:14:53.940Z,78.02
2022-10-10T18:17:23.967Z,78.12
2022-10-10T18:19:53.881Z,78.42
2022-10-10T18:22:23.986Z,77.96
2022-10-10T18:24:53.853Z,78.06
2022-10-10T18:27:24.242Z,78.04
2022-10-10T18:29:54.286Z,78.00
2022-10-10T18:32:24.139Z,77.80
2022-10-10T18:34:54.012Z,77.83
2022-10-10T18:37:23.911Z,77.64
2022-10-10T18:39:53.787Z,77.64
2022-10-10T18:42:23.898Z,77.34
2022-10-10T18:44:53.931Z,77.36
2022-10-10T18:47:23.901Z,77.32
2022-10-10T18:49:54.974Z,77.76
2022-10-10T18:52:25.816Z,77.94
2022-10-10T18:54:55.722Z,77.82
2022-10-10T18:57:25.861Z,77.53
2022-10-10T18:59:57.116Z,77.29
2022-10-10T19:02:26.746Z,77.26
2022-10-10T19:04:56.575Z,76.92
2022-10-10T19:07:26.607Z,77.06
2022-10-10T19:09:57.025Z,76.88
2022-10-10T19:12:27.803Z,76.82
2022-10-10T19:14:57.860Z,76.77
2022-10-10T19:17:27.774Z,76.42
2022-10-10T19:19:57.801Z,76.26
2022-10-10T19:22:28.132Z,76.43
2022-10-10T19:24:58.735Z,76.17
2022-10-10T19:27:28.580Z,76.25
2022-10-10T19:29:58.843Z,76.18
2022-10-10T19:32:29.823Z,76.22
2022-10-10T19:34:59.826Z,76.18
2022-10-10T19:37:29.660Z,76.23
2022-10-10T19:39:59.880Z,76.12
2022-10-10T19:42:29.987Z,75.65
2022-10-10T19:45:00.037Z,75.84
2022-10-10T19:47:29.872Z,76.34
2022-10-10T19:50:00.906Z,75.98
2022-10-10T19:52:31.165Z,76.03
2022-10-10T19:55:01.191Z,76.02
2022-10-10T19:57:31.040Z,75.98
2022-10-10T20:00:01.690Z,76.04
2022-10-10T20:02:41.024Z,75.72
2022-10-10T20:05:11.476Z,76.53
2022-10-10T20:07:41.624Z,76.30
2022-10-10T20:10:12.027Z,76.04
2022-10-10T20:12:42.718Z,76.34
2022-10-10T20:15:13.370Z,76.37
2022-10-10T20:17:43.586Z,76.54
2022-10-10T20:20:14.190Z,76.15
2022-10-10T20:22:46.692Z,76.53
2022-10-10T20:25:16.702Z,76.63
2022-10-10T20:27:46.565Z,76.38
2022-10-10T20:30:16.552Z,76.47
2022-10-10T20:32:46.606Z,76.26
2022-10-10T20:35:16.707Z,76.85
2022-10-10T20:37:48.021Z,76.56
2022-10-10T20:40:17.675Z,77.14
2022-10-10T20:42:47.503Z,76.67
2022-10-10T20:45:18.723Z,76.50
2022-10-10T20:47:48.755Z,76.59
2022-10-10T20:50:18.761Z,76.25
2022-10-10T20:52:49.665Z,76.63
2022-10-10T20:55:20.127Z,76.26
2022-10-10T20:57:50.771Z,76.44
2022-10-10T21:00:20.912Z,76.06
2022-10-10T21:02:51.578Z,76.29
2022-10-10T21:05:21.540Z,76.28
2022-10-10T21:07:51.406Z,76.52
2022-10-10T21:10:21.445Z,76.48
2022-10-10T21:12:52.488Z,76.06
2022-10-10T21:15:23.017Z,76.33
2022-10-10T21:17:53.017Z,76.20
2022-10-10T21:20:22.839Z,76.14
2022-10-10T21:22:52.716Z,76.50
2022-10-10T21:25:22.599Z,76.59
2022-10-10T21:27:52.445Z,76.62
2022-10-10T21:30:24.088Z,76.37
2022-10-10T21:32:54.115Z,76.36
2022-10-10T21:35:24.058Z,76.29
2022-10-10T21:37:54.268Z,76.67
2022-10-10T21:40:24.168Z,76.95
2022-10-10T21:42:54.020Z,76.84
2022-10-10T21:45:24.517Z,76.63
2022-10-10T21:47:54.358Z,76.75
2022-10-10T21:50:24.390Z,76.53
2022-10-10T21:52:54.238Z,76.41
2022-10-10T21:55:24.656Z,76.45
2022-10-10T21:57:55.293Z,76.70
2022-10-10T22:00:25.468Z,76.85
2022-10-10T22:02:55.663Z,76.69
2022-10-10T22:05:25.755Z,76.84
2022-10-10T22:07:55.520Z,76.91
2022-10-10T22:10:25.476Z,76.88
2022-10-10T22:12:55.679Z,77.19
2022-10-10T22:15:26.292Z,77.44
2022-10-10T22:17:56.775Z,77.65
2022-10-10T22:20:27.241Z,77.93
2022-10-10T22:22:57.295Z,77.96
2022-10-10T22:25:27.163Z,78.19
2022-10-10T22:27:57.440Z,77.89
2022-10-10T22:30:29.066Z,78.05
2022-10-10T22:32:59.062Z,78.30
2022-10-10T22:35:28.898Z,78.35
2022-10-10T22:38:00.242Z,78.26
2022-10-10T22:40:31.089Z,78.06
2022-10-10T22:43:01.403Z,78.09
2022-10-10T22:45:32.825Z,78.25
2022-10-10T22:48:03.131Z,78.07
2022-10-10T22:50:34.299Z,78.63
2022-10-10T22:53:04.530Z,78.36
2022-10-10T22:57:21.228Z,78.46
2022-10-10T22:59:51.270Z,78.21
2022-10-10T23:02:22.016Z,78.36
2022-10-10T23:04:52.145Z,78.60
2022-10-10T23:07:24.904Z,78.30
2022-10-10T23:09:55.051Z,78.46
2022-10-10T23:12:25.029Z,78.57
2022-10-10T23:14:54.993Z,78.21
2022-10-10T23:17:24.887Z,78.37
2022-10-10T23:19:55.267Z,78.06
2022-10-10T23:22:27.554Z,77.88
2022-10-10T23:24:57.615Z,77.91
2022-10-10T23:27:28.000Z,77.75
2022-10-10T23:29:58.030Z,77.99
2022-10-10T23:32:31.484Z,78.08
2022-10-10T23:35:01.508Z,77.96
2022-10-10T23:37:32.661Z,78.03
2022-10-10T23:40:02.370Z,78.13
2022-10-10T23:42:32.200Z,78.11
2022-10-10T23:45:02.222Z,78.63
2022-10-10T23:47:32.297Z,78.42
2022-10-10T23:50:02.470Z,78.23
2022-10-10T23:52:32.680Z,78.18
2022-10-10T23:55:03.662Z,78.25
2022-10-10T23:57:34.764Z,78.48
